createdAt,value
2019-03-03T00:00:13.401Z,60.44
2019-03-03T00:01:13.386Z,60.82
2019-03-03T00:02:13.375Z,60.63
2019-03-03T00:03:13.356Z,60.06
2019-03-03T00:04:13.353Z,60.06
2019-03-03T00:05:13.330Z,59.78
2019-03-03T00:06:13.312Z,59.97
2019-03-03T00:07:13.298Z,59.97
2019-03-03T00:08:13.288Z,60.16
2019-03-03T00:09:13.272Z,59.97
2019-03-03T00:10:13.256Z,60.22
2019-03-03T00:11:13.242Z,60.53
2019-03-03T00:12:13.229Z,60.06
2019-03-03T00:13:12.972Z,59.21
2019-03-03T00:14:13.197Z,58.64
2019-03-03T00:15:12.941Z,58.45
2019-03-03T00:16:13.171Z,58.26
2019-03-03T00:17:13.154Z,57.98
2019-03-03T00:18:13.147Z,58.54
2019-03-03T00:19:13.139Z,58.45
2019-03-03T00:20:12.867Z,58.45
2019-03-03T00:21:13.097Z,58.42
2019-03-03T00:22:13.105Z,58.26
2019-03-03T00:23:12.822Z,58.17
2019-03-03T00:24:13.055Z,57.79
2019-03-03T00:25:13.042Z,58.61
2019-03-03T00:26:13.026Z,58.26
2019-03-03T00:27:13.009Z,58.64
2019-03-03T00:28:13.001Z,58.51
2019-03-03T00:29:12.984Z,59.02
2019-03-03T00:30:12.965Z,59.97
2019-03-03T00:31:12.957Z,60.16
2019-03-03T00:32:12.937Z,60.73
2019-03-03T00:33:12.678Z,61.39
2019-03-03T00:34:12.906Z,61.87
2019-03-03T00:35:12.654Z,61.87
2019-03-03T00:36:12.891Z,61.55
2019-03-03T00:37:12.866Z,61.87
2019-03-03T00:38:13.100Z,61.83
2019-03-03T00:39:12.842Z,61.58
2019-03-03T00:40:12.820Z,62.15
2019-03-03T00:41:12.802Z,62.43
2019-03-03T00:42:12.789Z,62.82
2019-03-03T00:43:12.776Z,62.43
2019-03-03T00:44:12.759Z,62.82
2019-03-03T00:45:12.746Z,63.26
2019-03-03T00:46:12.731Z,62.53
2019-03-03T00:47:12.715Z,62.5
2019-03-03T00:48:12.702Z,62.05
2019-03-03T00:49:12.690Z,61.96
2019-03-03T00:50:12.674Z,61.87
2019-03-03T00:51:12.658Z,61.2
2019-03-03T00:52:14.192Z,61.2
2019-03-03T00:53:12.628Z,61.01
2019-03-03T00:54:12.614Z,61.2
2019-03-03T00:55:12.609Z,60.53
2019-03-03T00:56:12.589Z,60.63
2019-03-03T00:57:12.573Z,60.92
2019-03-03T00:58:12.560Z,60.35
2019-03-03T00:59:12.546Z,59.88
2019-03-03T01:00:12.532Z,59.4
2019-03-03T01:01:12.512Z,59.11
2019-03-03T01:02:12.499Z,59.4
2019-03-03T01:03:12.238Z,58.54
2019-03-03T01:04:12.475Z,58.36
2019-03-03T01:05:12.454Z,58.07
2019-03-03T01:06:12.446Z,57.98
2019-03-03T01:07:12.428Z,57.47
2019-03-03T01:08:12.411Z,57.59
2019-03-03T01:09:12.151Z,56.55
2019-03-03T01:10:12.383Z,56.46
2019-03-03T01:11:12.370Z,56.65
2019-03-03T01:12:12.352Z,56.08
2019-03-03T01:13:12.340Z,55.98
2019-03-03T01:14:12.324Z,55.22
2019-03-03T01:15:12.312Z,55.04
2019-03-03T01:16:12.296Z,54.94
2019-03-03T01:17:12.287Z,54.37
2019-03-03T01:18:12.267Z,54.46
2019-03-03T01:19:12.254Z,54.37
2019-03-03T01:20:12.242Z,53.7
2019-03-03T01:21:12.224Z,53.42
2019-03-03T01:22:12.215Z,52.85
2019-03-03T01:23:12.196Z,52.19
2019-03-03T01:24:12.182Z,51.9
2019-03-03T01:25:12.168Z,51.52
2019-03-03T01:26:11.907Z,51.05
2019-03-03T01:27:12.134Z,50.67
2019-03-03T01:28:12.124Z,49.82
2019-03-03T01:29:12.107Z,49.05
2019-03-03T01:30:12.091Z,48.96
2019-03-03T01:31:12.079Z,48.11
2019-03-03T01:32:12.064Z,47.44
2019-03-03T01:33:12.054Z,46.88
2019-03-03T01:34:11.791Z,46.49
2019-03-03T01:35:11.783Z,45.64
2019-03-03T01:36:12.010Z,45.17
2019-03-03T01:37:11.992Z,44.4
2019-03-03T01:38:11.976Z,44.02
2019-03-03T01:39:11.962Z,43.84
2019-03-03T01:40:11.953Z,43.27
2019-03-03T01:41:11.690Z,42.98
2019-03-03T01:42:11.918Z,42.89
2019-03-03T01:43:11.909Z,42.7
2019-03-03T01:44:11.898Z,42.13
2019-03-03T01:45:11.878Z,42.32
2019-03-03T01:46:11.862Z,41.94
2019-03-03T01:47:11.850Z,41.46
2019-03-03T01:48:11.585Z,41.08
2019-03-03T01:49:11.822Z,40.8
2019-03-03T01:50:11.815Z,40.7
2019-03-03T01:51:11.789Z,39.95
2019-03-03T01:52:11.819Z,39.95
2019-03-03T01:53:11.760Z,39.57
2019-03-03T01:54:11.747Z,39.47
2019-03-03T01:55:11.736Z,39.37
2019-03-03T01:56:11.720Z,39.37
2019-03-03T01:57:11.706Z,38.81
2019-03-03T01:58:11.698Z,38.62
2019-03-03T01:59:11.674Z,38.62
2019-03-03T02:00:11.662Z,38.24
2019-03-03T02:01:11.646Z,37.95
2019-03-03T02:02:11.630Z,37.95
2019-03-03T02:03:11.622Z,37.1
2019-03-03T02:04:11.602Z,37.01
2019-03-03T02:05:11.588Z,36.72
2019-03-03T02:06:11.578Z,36.44
2019-03-03T02:07:11.562Z,36.34
2019-03-03T02:08:11.551Z,36.53
2019-03-03T02:09:11.533Z,36.53
2019-03-03T02:10:11.270Z,36.44
2019-03-03T02:11:11.503Z,36.82
2019-03-03T02:12:11.491Z,36.63
2019-03-03T02:13:11.476Z,36.53
2019-03-03T02:14:11.457Z,36.91
2019-03-03T02:15:11.447Z,36.63
2019-03-03T02:16:11.439Z,36.24
2019-03-03T02:17:11.420Z,36.05
2019-03-03T02:18:11.404Z,36.44
2019-03-03T02:19:11.394Z,36.53
2019-03-03T02:20:11.373Z,36.72
2019-03-03T02:21:11.358Z,36.91
2019-03-03T02:22:11.344Z,37.1
2019-03-03T02:23:11.331Z,37.86
2019-03-03T02:24:11.317Z,38.43
2019-03-03T02:25:11.059Z,39.18
2019-03-03T02:26:11.288Z,39.47
2019-03-03T02:27:11.276Z,40.23
2019-03-03T02:28:11.262Z,40.8
2019-03-03T02:29:11.250Z,40.8
2019-03-03T02:30:11.233Z,40.89
2019-03-03T02:31:11.218Z,41.66
2019-03-03T02:32:11.206Z,42.32
2019-03-03T02:33:11.197Z,42.41
2019-03-03T02:34:11.177Z,43.17
2019-03-03T02:35:11.159Z,44.31
2019-03-03T02:36:11.173Z,44.79
2019-03-03T02:37:11.142Z,45.73
2019-03-03T02:38:11.121Z,45.36
2019-03-03T02:39:11.112Z,46.02
2019-03-03T02:40:11.123Z,46.3
2019-03-03T02:41:10.834Z,46.97
2019-03-03T02:42:11.062Z,47.73
2019-03-03T02:43:11.046Z,47.63
2019-03-03T02:44:11.039Z,48.01
2019-03-03T02:45:11.030Z,48.77
2019-03-03T02:46:11.010Z,49.24
2019-03-03T02:47:10.998Z,49.91
2019-03-03T02:48:10.977Z,50.38
2019-03-03T02:49:10.965Z,50.67
2019-03-03T02:50:10.962Z,51.24
2019-03-03T02:51:10.938Z,51.33
2019-03-03T02:52:10.922Z,51.72
2019-03-03T02:53:10.908Z,52.85
2019-03-03T02:54:10.902Z,52.37
2019-03-03T02:55:10.885Z,53.7
2019-03-03T02:56:10.862Z,53.61
2019-03-03T02:57:10.851Z,55.04
2019-03-03T02:58:10.835Z,56.17
2019-03-03T02:59:10.821Z,56.84
2019-03-03T03:00:10.807Z,56.36
2019-03-03T03:01:10.794Z,56.55
2019-03-03T03:02:10.781Z,56.65
2019-03-03T03:03:10.528Z,57.12
2019-03-03T03:04:10.752Z,57.4
2019-03-03T03:05:10.740Z,57.59
2019-03-03T03:06:10.725Z,57.12
2019-03-03T03:07:10.713Z,57.98
2019-03-03T03:08:10.698Z,59.3
2019-03-03T03:09:10.679Z,59.97
2019-03-03T03:10:10.675Z,59.97
2019-03-03T03:11:10.653Z,61.01
2019-03-03T03:12:10.637Z,61.3
2019-03-03T03:13:10.382Z,62.05
2019-03-03T03:14:10.609Z,62.34
2019-03-03T03:15:10.598Z,62.72
2019-03-03T03:16:10.584Z,62.72
2019-03-03T03:17:10.320Z,63.1
2019-03-03T03:18:10.553Z,63.39
2019-03-03T03:19:10.548Z,63.67
2019-03-03T03:20:10.529Z,64.24
2019-03-03T03:21:10.515Z,65
2019-03-03T03:22:10.503Z,65.85
2019-03-03T03:23:10.483Z,66.61
2019-03-03T03:24:10.480Z,67.18
2019-03-03T03:25:10.454Z,68.7
2019-03-03T03:26:10.196Z,69.36
2019-03-03T03:27:10.425Z,70.12
2019-03-03T03:28:10.420Z,70.59
2019-03-03T03:29:10.398Z,71.73
2019-03-03T03:30:10.409Z,73.63
2019-03-03T03:31:10.373Z,75.43
2019-03-03T03:32:10.374Z,77.24
2019-03-03T03:33:10.350Z,76.86
2019-03-03T03:34:10.344Z,77.43
2019-03-03T03:35:10.313Z,79.8
2019-03-03T03:36:10.312Z,80.75
2019-03-03T03:37:10.287Z,82.65
2019-03-03T03:38:10.274Z,84.92
2019-03-03T03:39:10.277Z,86.72
2019-03-03T03:40:10.250Z,87.49
2019-03-03T03:41:10.234Z,88.15
2019-03-03T03:42:10.216Z,88.24
2019-03-03T03:43:10.208Z,89.29
2019-03-03T03:44:09.965Z,89
2019-03-03T03:45:09.927Z,89.67
2019-03-03T03:46:10.172Z,89.58
2019-03-03T03:47:10.151Z,90.33
2019-03-03T03:48:10.132Z,90.62
2019-03-03T03:49:10.116Z,90.43
2019-03-03T03:50:10.106Z,90.52
2019-03-03T03:51:09.840Z,90.43
2019-03-03T03:52:09.831Z,90.33
2019-03-03T03:53:10.059Z,90.14
2019-03-03T03:54:10.051Z,90.9
2019-03-03T03:55:10.036Z,93.37
2019-03-03T03:56:10.029Z,94.79
2019-03-03T03:57:10.006Z,94.42
2019-03-03T03:58:09.990Z,94.98
2019-03-03T03:59:09.979Z,95.55
2019-03-03T04:00:09.961Z,95.07
2019-03-03T04:01:09.949Z,94.89
2019-03-03T04:02:09.940Z,96.41
2019-03-03T04:03:09.928Z,96.03
2019-03-03T04:04:09.906Z,96.41
2019-03-03T04:05:09.892Z,96.97
2019-03-03T04:06:09.885Z,96.97
2019-03-03T04:07:09.866Z,97.83
2019-03-03T04:08:09.856Z,97.07
2019-03-03T04:09:09.837Z,96.78
2019-03-03T04:10:09.823Z,96.22
2019-03-03T04:11:09.864Z,96.59
2019-03-03T04:12:09.792Z,96.31
2019-03-03T04:13:09.783Z,97.17
2019-03-03T04:14:09.763Z,96.41
2019-03-03T04:15:09.751Z,97.07
2019-03-03T04:16:09.739Z,97.07
2019-03-03T04:17:09.724Z,97.07
2019-03-03T04:18:09.739Z,96.88
2019-03-03T04:19:09.691Z,97.17
2019-03-03T04:20:09.674Z,97.83
2019-03-03T04:21:09.664Z,97.17
2019-03-03T04:22:09.648Z,96.88
2019-03-03T04:23:09.635Z,96.59
2019-03-03T04:24:09.627Z,96.78
2019-03-03T04:25:09.606Z,96.69
2019-03-03T04:26:09.588Z,98.11
2019-03-03T04:27:09.329Z,97.45
2019-03-03T04:28:09.564Z,97.26
2019-03-03T04:29:09.552Z,97.07
2019-03-03T04:30:09.537Z,97.74
2019-03-03T04:31:09.524Z,98.78
2019-03-03T04:32:09.504Z,98.3
2019-03-03T04:33:09.493Z,99.63
2019-03-03T04:34:09.484Z,99.54
2019-03-03T04:35:09.464Z,98.97
2019-03-03T04:36:09.451Z,98.3
2019-03-03T04:37:09.434Z,98.3
2019-03-03T04:38:09.418Z,98.11
2019-03-03T04:39:09.405Z,98.11
2019-03-03T04:40:09.391Z,97.74
2019-03-03T04:41:09.377Z,97.55
2019-03-03T04:42:09.365Z,96.88
2019-03-03T04:43:09.348Z,96.78
2019-03-03T04:44:09.341Z,96.41
2019-03-03T04:45:09.316Z,96.97
2019-03-03T04:46:09.323Z,96.88
2019-03-03T04:47:09.291Z,96.22
2019-03-03T04:48:09.274Z,96.5
2019-03-03T04:49:09.263Z,96.22
2019-03-03T04:50:09.258Z,96.41
2019-03-03T04:51:09.232Z,96.5
2019-03-03T04:52:09.219Z,97.07
2019-03-03T04:53:09.203Z,96.59
2019-03-03T04:54:09.191Z,96.5
2019-03-03T04:55:09.177Z,96.31
2019-03-03T04:56:08.915Z,96.97
2019-03-03T04:57:09.150Z,96.31
2019-03-03T04:58:08.888Z,96.31
2019-03-03T04:59:09.125Z,95.74
2019-03-03T05:00:09.121Z,95.36
2019-03-03T05:01:09.095Z,95.27
2019-03-03T05:02:09.079Z,95.27
2019-03-03T05:03:08.816Z,95.65
2019-03-03T05:04:09.048Z,95.74
2019-03-03T05:05:09.033Z,94.79
2019-03-03T05:06:09.030Z,94.13
2019-03-03T05:07:08.764Z,93.65
2019-03-03T05:08:09.023Z,93.46
2019-03-03T05:09:08.978Z,93.08
2019-03-03T05:10:08.718Z,93.27
2019-03-03T05:11:08.948Z,93.65
2019-03-03T05:12:08.939Z,93.37
2019-03-03T05:13:08.920Z,92.61
2019-03-03T05:14:08.908Z,92.42
2019-03-03T05:15:08.896Z,92.14
2019-03-03T05:16:08.878Z,92.14
2019-03-03T05:17:11.104Z,91.66
2019-03-03T05:18:08.603Z,91.09
2019-03-03T05:19:08.836Z,91.09
2019-03-03T05:20:08.578Z,90.71
2019-03-03T05:21:08.807Z,90.71
2019-03-03T05:22:08.795Z,90.52
2019-03-03T05:23:08.781Z,90.24
2019-03-03T05:24:08.766Z,89.95
2019-03-03T05:25:08.775Z,90.52
2019-03-03T05:26:08.738Z,89.76
2019-03-03T05:27:08.729Z,89.48
2019-03-03T05:28:08.713Z,90.24
2019-03-03T05:29:08.694Z,90.33
2019-03-03T05:30:08.680Z,89.95
2019-03-03T05:31:08.672Z,92.23
2019-03-03T05:32:08.656Z,92.52
2019-03-03T05:33:08.638Z,92.52
2019-03-03T05:34:08.628Z,92.33
2019-03-03T05:35:08.607Z,92.33
2019-03-03T05:36:08.594Z,92.14
2019-03-03T05:37:08.339Z,91.75
2019-03-03T05:38:08.568Z,92.61
2019-03-03T05:39:08.551Z,92.04
2019-03-03T05:40:08.536Z,91.85
2019-03-03T05:41:08.522Z,91.66
2019-03-03T05:42:08.262Z,91
2019-03-03T05:43:08.493Z,92.14
2019-03-03T05:44:08.481Z,92.42
2019-03-03T05:45:08.217Z,92.9
2019-03-03T05:46:08.453Z,92.71
2019-03-03T05:47:08.437Z,92.8
2019-03-03T05:48:08.422Z,92.23
2019-03-03T05:49:08.408Z,92.71
2019-03-03T05:50:08.399Z,93.46
2019-03-03T05:51:08.134Z,94.13
2019-03-03T05:52:08.369Z,93.56
2019-03-03T05:53:08.104Z,93.27
2019-03-03T05:54:08.340Z,92.9
2019-03-03T05:55:08.321Z,92.52
2019-03-03T05:56:08.060Z,92.99
2019-03-03T05:57:08.293Z,94.23
2019-03-03T05:58:08.280Z,94.89
2019-03-03T05:59:08.264Z,94.32
2019-03-03T06:00:08.248Z,96.41
2019-03-03T06:01:08.239Z,95.84
2019-03-03T06:02:08.227Z,95.65
2019-03-03T06:03:07.964Z,95.36
2019-03-03T06:04:07.947Z,95.55
2019-03-03T06:05:08.178Z,95.55
2019-03-03T06:06:08.163Z,95.27
2019-03-03T06:07:08.151Z,95.07
2019-03-03T06:08:08.136Z,93.84
2019-03-03T06:09:08.127Z,94.03
2019-03-03T06:10:08.108Z,93.94
2019-03-03T06:11:08.096Z,94.79
2019-03-03T06:12:08.089Z,95.65
2019-03-03T06:13:08.066Z,95.74
2019-03-03T06:14:08.051Z,96.31
2019-03-03T06:15:08.043Z,96.5
2019-03-03T06:16:08.018Z,96.59
2019-03-03T06:17:08.009Z,96.59
2019-03-03T06:18:07.992Z,96.12
2019-03-03T06:19:07.979Z,96.69
2019-03-03T06:20:07.963Z,97.36
2019-03-03T06:21:07.947Z,97.83
2019-03-03T06:22:07.937Z,97.74
2019-03-03T06:23:07.927Z,98.68
2019-03-03T06:24:07.663Z,99.99
2019-03-03T06:25:07.898Z,99.99
2019-03-03T06:26:07.630Z,99.99
2019-03-03T06:27:07.618Z,99.99
2019-03-03T06:28:07.849Z,99.99
2019-03-03T06:29:07.841Z,99.99
2019-03-03T06:30:07.975Z,99.99
2019-03-03T06:31:07.803Z,99.99
2019-03-03T06:32:07.547Z,99.91
2019-03-03T06:33:07.779Z,99.44
2019-03-03T06:34:07.762Z,99.99
2019-03-03T06:35:07.748Z,99.99
2019-03-03T06:36:07.734Z,99.99
2019-03-03T06:37:07.719Z,99.99
2019-03-03T06:38:07.704Z,99.99
2019-03-03T06:39:07.693Z,99.99
2019-03-03T06:40:07.679Z,99.99
2019-03-03T06:41:07.666Z,99.99
2019-03-03T06:42:07.649Z,99.99
2019-03-03T06:43:07.646Z,99.99
2019-03-03T06:44:07.621Z,99.99
2019-03-03T06:45:07.606Z,99.99
2019-03-03T06:46:07.600Z,99.99
2019-03-03T06:47:07.578Z,99.99
2019-03-03T06:48:07.567Z,99.99
2019-03-03T06:49:07.550Z,99.99
2019-03-03T06:50:07.540Z,99.99
2019-03-03T06:51:07.523Z,99.99
2019-03-03T06:52:07.506Z,99.99
2019-03-03T06:53:07.505Z,99.99
2019-03-03T06:54:07.482Z,99.99
2019-03-03T06:55:07.222Z,99.99
2019-03-03T06:56:07.451Z,99.99
2019-03-03T06:57:07.440Z,99.99
2019-03-03T06:58:07.176Z,99.99
2019-03-03T06:59:07.405Z,99.99
2019-03-03T07:00:07.394Z,99.99
2019-03-03T07:01:07.387Z,99.99
2019-03-03T07:02:07.365Z,99.99
2019-03-03T07:03:07.353Z,99.99
2019-03-03T07:04:07.341Z,99.99
2019-03-03T07:05:07.325Z,99.99
2019-03-03T07:06:07.310Z,99.99
2019-03-03T07:07:07.295Z,99.99
2019-03-03T07:08:07.282Z,99.99
2019-03-03T07:09:07.023Z,99.99
2019-03-03T07:10:07.256Z,99.99
2019-03-03T07:11:07.243Z,99.99
2019-03-03T07:12:07.228Z,99.99
2019-03-03T07:13:07.219Z,99.99
2019-03-03T07:14:07.202Z,99.99
2019-03-03T07:15:07.187Z,99.99
2019-03-03T07:16:07.172Z,99.99
2019-03-03T07:17:07.159Z,99.99
2019-03-03T07:18:07.170Z,99.99
2019-03-03T07:19:07.132Z,99.99
2019-03-03T07:20:07.118Z,99.99
2019-03-03T07:21:06.857Z,99.99
2019-03-03T07:22:08.532Z,99.99
2019-03-03T07:23:06.830Z,99.99
2019-03-03T07:24:06.867Z,99.99
2019-03-03T07:25:07.049Z,99.99
2019-03-03T07:26:07.033Z,99.99
2019-03-03T07:27:07.172Z,99.99
2019-03-03T07:28:07.008Z,99.99
2019-03-03T07:29:07.044Z,99.99
2019-03-03T07:30:06.981Z,99.99
2019-03-03T07:31:06.967Z,99.99
2019-03-03T07:32:06.955Z,99.99
2019-03-03T07:33:06.940Z,99.99
2019-03-03T07:34:06.931Z,99.99
2019-03-03T07:35:06.912Z,99.99
2019-03-03T07:36:06.898Z,99.99
2019-03-03T07:37:06.887Z,99.99
2019-03-03T07:38:06.871Z,99.99
2019-03-03T07:39:06.868Z,99.99
2019-03-03T07:40:06.845Z,99.99
2019-03-03T07:41:06.832Z,99.99
2019-03-03T07:42:06.818Z,99.99
2019-03-03T07:43:06.815Z,99.99
2019-03-03T07:44:06.796Z,99.99
2019-03-03T07:45:07.059Z,99.99
2019-03-03T07:46:06.765Z,99.99
2019-03-03T07:47:06.913Z,99.99
2019-03-03T07:48:06.742Z,99.99
2019-03-03T07:49:06.739Z,99.99
2019-03-03T07:50:06.709Z,99.99
2019-03-03T07:51:06.703Z,99.99
2019-03-03T07:52:06.682Z,99.99
2019-03-03T07:53:06.674Z,99.99
2019-03-03T07:54:06.658Z,99.99
2019-03-03T07:55:06.644Z,99.99
2019-03-03T07:56:06.632Z,99.99
2019-03-03T07:57:06.614Z,99.99
2019-03-03T07:58:06.624Z,99.99
2019-03-03T07:59:06.588Z,99.99
2019-03-03T08:00:06.583Z,99.99
2019-03-03T08:01:06.568Z,99.99
2019-03-03T08:02:06.550Z,99.99
2019-03-03T08:03:06.538Z,99.99
2019-03-03T08:04:06.531Z,99.99
2019-03-03T08:05:06.545Z,99.99
2019-03-03T08:06:06.499Z,99.99
2019-03-03T08:07:06.487Z,99.99
2019-03-03T08:08:06.480Z,99.99
2019-03-03T08:09:06.456Z,99.99
2019-03-03T08:10:06.444Z,99.99
2019-03-03T08:11:06.429Z,99.99
2019-03-03T08:12:06.414Z,99.99
2019-03-03T08:13:11.845Z,99.99
2019-03-03T08:14:06.390Z,99.99
2019-03-03T08:15:06.384Z,99.99
2019-03-03T08:16:06.364Z,99.99
2019-03-03T08:17:06.352Z,99.99
2019-03-03T08:18:06.340Z,99.99
2019-03-03T08:19:06.322Z,99.99
2019-03-03T08:20:06.309Z,99.99
2019-03-03T08:21:06.295Z,99.99
2019-03-03T08:22:06.281Z,99.99
2019-03-03T08:23:06.267Z,99.99
2019-03-03T08:24:06.255Z,99.99
2019-03-03T08:25:06.243Z,99.99
2019-03-03T08:26:06.233Z,99.99
2019-03-03T08:27:06.216Z,99.99
2019-03-03T08:28:06.205Z,99.99
2019-03-03T08:29:06.190Z,99.99
2019-03-03T08:30:06.175Z,99.99
2019-03-03T08:31:06.163Z,99.99
2019-03-03T08:32:05.903Z,99.99
2019-03-03T08:33:06.134Z,99.99
2019-03-03T08:34:05.874Z,99.99
2019-03-03T08:35:06.109Z,99.99
2019-03-03T08:36:05.847Z,99.99
2019-03-03T08:37:06.086Z,99.99
2019-03-03T08:38:06.072Z,99.99
2019-03-03T08:39:06.055Z,99.99
2019-03-03T08:40:05.797Z,99.99
2019-03-03T08:41:06.031Z,99.99
2019-03-03T08:42:06.016Z,99.99
2019-03-03T08:43:06.463Z,99.99
2019-03-03T08:44:05.993Z,99.99
2019-03-03T08:45:05.978Z,99.99
2019-03-03T08:46:05.963Z,99.99
2019-03-03T08:47:05.950Z,99.99
2019-03-03T08:48:05.943Z,99.99
2019-03-03T08:49:05.971Z,99.99
2019-03-03T08:50:05.912Z,99.99
2019-03-03T08:51:05.898Z,99.99
2019-03-03T08:52:05.886Z,99.99
2019-03-03T08:53:05.878Z,99.99
2019-03-03T08:54:05.866Z,99.99
2019-03-03T08:55:05.845Z,99.99
2019-03-03T08:56:05.828Z,99.99
2019-03-03T08:57:05.863Z,99.99
2019-03-03T08:58:05.804Z,99.99
2019-03-03T08:59:05.790Z,99.99
2019-03-03T09:00:05.781Z,99.99
2019-03-03T09:01:05.765Z,99.99
2019-03-03T09:02:05.752Z,99.99
2019-03-03T09:03:05.491Z,99.99
2019-03-03T09:04:05.725Z,99.99
2019-03-03T09:05:05.713Z,99.99
2019-03-03T09:06:05.707Z,99.99
2019-03-03T09:07:05.688Z,99.99
2019-03-03T09:08:05.672Z,99.99
2019-03-03T09:09:05.657Z,99.99
2019-03-03T09:10:05.645Z,99.99
2019-03-03T09:11:05.386Z,99.99
2019-03-03T09:12:05.624Z,99.99
2019-03-03T09:13:05.606Z,99.99
2019-03-03T09:14:05.593Z,99.99
2019-03-03T09:15:05.581Z,99.99
2019-03-03T09:16:05.568Z,99.99
2019-03-03T09:17:05.311Z,99.99
2019-03-03T09:18:05.294Z,99.99
2019-03-03T09:19:05.528Z,99.99
2019-03-03T09:20:05.516Z,99.99
2019-03-03T09:21:05.503Z,99.99
2019-03-03T09:22:07.157Z,99.99
2019-03-03T09:23:05.487Z,99.99
2019-03-03T09:24:05.460Z,99.99
2019-03-03T09:25:05.456Z,99.99
2019-03-03T09:26:05.442Z,99.99
2019-03-03T09:27:05.477Z,99.99
2019-03-03T09:28:05.410Z,99.99
2019-03-03T09:29:05.403Z,99.99
2019-03-03T09:30:05.384Z,99.99
2019-03-03T09:31:05.368Z,99.99
2019-03-03T09:32:05.363Z,99.99
2019-03-03T09:33:05.492Z,99.99
2019-03-03T09:34:05.332Z,99.99
2019-03-03T09:35:05.318Z,99.99
2019-03-03T09:36:05.314Z,99.99
2019-03-03T09:37:05.319Z,99.99
2019-03-03T09:38:05.276Z,99.99
2019-03-03T09:39:05.608Z,99.99
2019-03-03T09:40:11.891Z,99.99
2019-03-03T09:41:04.993Z,99.99
2019-03-03T09:42:05.229Z,99.99
2019-03-03T09:43:05.214Z,99.99
2019-03-03T09:44:05.200Z,99.99
2019-03-03T09:45:05.192Z,99.99
2019-03-03T09:46:05.173Z,99.99
2019-03-03T09:47:05.162Z,99.99
2019-03-03T09:48:05.150Z,99.99
2019-03-03T09:49:05.138Z,99.99
2019-03-03T09:50:05.123Z,99.99
2019-03-03T09:51:05.113Z,99.99
2019-03-03T09:52:05.102Z,99.99
2019-03-03T09:53:05.086Z,99.99
2019-03-03T09:54:05.073Z,99.99
2019-03-03T09:55:05.054Z,99.99
2019-03-03T09:56:05.045Z,99.99
2019-03-03T09:57:05.032Z,99.99
2019-03-03T09:58:05.068Z,99.99
2019-03-03T09:59:05.004Z,99.99
2019-03-03T10:00:04.993Z,99.99
2019-03-03T10:01:04.978Z,99.99
2019-03-03T10:02:04.720Z,99.99
2019-03-03T10:03:04.980Z,99.99
2019-03-03T10:04:04.697Z,99.99
2019-03-03T10:05:04.926Z,99.99
2019-03-03T10:06:04.918Z,99.99
2019-03-03T10:07:04.902Z,99.99
2019-03-03T10:08:04.890Z,99.99
2019-03-03T10:09:04.874Z,99.99
2019-03-03T10:10:04.881Z,99.99
2019-03-03T10:11:04.857Z,99.99
2019-03-03T10:12:04.841Z,99.99
2019-03-03T10:13:04.828Z,99.99
2019-03-03T10:14:04.813Z,99.99
2019-03-03T10:15:04.555Z,99.99
2019-03-03T10:16:04.790Z,99.99
2019-03-03T10:17:04.774Z,99.99
2019-03-03T10:18:04.771Z,99.99
2019-03-03T10:19:09.804Z,99.99
2019-03-03T10:20:04.744Z,99.99
2019-03-03T10:21:05.413Z,99.99
2019-03-03T10:22:04.714Z,99.99
2019-03-03T10:23:04.700Z,99.99
2019-03-03T10:24:04.693Z,99.99
2019-03-03T10:25:04.676Z,99.99
2019-03-03T10:26:04.666Z,99.99
2019-03-03T10:27:04.655Z,99.99
2019-03-03T10:28:04.645Z,99.99
2019-03-03T10:29:04.629Z,99.99
2019-03-03T10:30:04.615Z,99.99
2019-03-03T10:31:04.603Z,99.99
2019-03-03T10:32:04.591Z,99.99
2019-03-03T10:33:04.332Z,99.99
2019-03-03T10:34:04.578Z,99.99
2019-03-03T10:35:04.559Z,99.99
2019-03-03T10:36:04.547Z,99.99
2019-03-03T10:37:04.531Z,99.99
2019-03-03T10:38:04.521Z,99.99
2019-03-03T10:39:04.550Z,99.99
2019-03-03T10:40:04.496Z,99.99
2019-03-03T10:41:04.485Z,99.99
2019-03-03T10:42:04.474Z,99.99
2019-03-03T10:43:04.214Z,99.99
2019-03-03T10:44:04.448Z,99.99
2019-03-03T10:45:04.436Z,99.99
2019-03-03T10:46:04.431Z,99.99
2019-03-03T10:47:04.407Z,99.99
2019-03-03T10:48:04.397Z,99.99
2019-03-03T10:49:04.388Z,99.99
2019-03-03T10:50:04.381Z,99.99
2019-03-03T10:51:04.361Z,99.99
2019-03-03T10:52:04.348Z,99.99
2019-03-03T10:53:04.344Z,99.99
2019-03-03T10:54:04.323Z,99.99
2019-03-03T10:55:04.321Z,99.99
2019-03-03T10:56:04.300Z,99.99
2019-03-03T10:57:04.322Z,99.99
2019-03-03T10:58:04.278Z,99.99
2019-03-03T10:59:04.270Z,99.99
2019-03-03T11:00:04.253Z,99.99
2019-03-03T11:01:04.247Z,99.99
2019-03-03T11:02:04.227Z,99.99
2019-03-03T11:03:05.039Z,99.99
2019-03-03T11:04:04.204Z,99.99
2019-03-03T11:05:04.196Z,99.99
2019-03-03T11:06:04.186Z,99.99
2019-03-03T11:07:04.170Z,99.99
2019-03-03T11:08:04.160Z,99.99
2019-03-03T11:09:04.148Z,99.99
2019-03-03T11:10:04.143Z,99.99
2019-03-03T11:11:04.123Z,99.99
2019-03-03T11:12:04.111Z,99.99
2019-03-03T11:13:04.095Z,99.99
2019-03-03T11:14:04.286Z,99.99
2019-03-03T11:15:04.082Z,99.99
2019-03-03T11:16:04.060Z,99.99
2019-03-03T11:17:04.050Z,99.99
2019-03-03T11:18:04.040Z,99.99
2019-03-03T11:19:04.088Z,99.99
2019-03-03T11:20:04.023Z,99.99
2019-03-03T11:21:04.007Z,99.99
2019-03-03T11:22:03.995Z,99.99
2019-03-03T11:23:03.987Z,99.99
2019-03-03T11:24:03.968Z,99.99
2019-03-03T11:25:03.959Z,99.99
2019-03-03T11:26:03.946Z,99.99
2019-03-03T11:27:03.968Z,99.99
2019-03-03T11:28:03.924Z,99.99
2019-03-03T11:29:03.908Z,99.99
2019-03-03T11:30:03.900Z,99.99
2019-03-03T11:31:03.886Z,99.99
2019-03-03T11:32:03.886Z,99.99
2019-03-03T11:33:03.857Z,99.99
2019-03-03T11:34:03.847Z,99.99
2019-03-03T11:35:03.835Z,99.99
2019-03-03T11:36:03.820Z,99.99
2019-03-03T11:37:03.566Z,99.99
2019-03-03T11:38:03.804Z,99.99
2019-03-03T11:39:03.784Z,99.99
2019-03-03T11:40:03.773Z,99.99
2019-03-03T11:41:03.765Z,99.99
2019-03-03T11:42:03.504Z,99.99
2019-03-03T11:43:03.746Z,99.99
2019-03-03T11:44:03.731Z,99.99
2019-03-03T11:45:03.713Z,99.99
2019-03-03T11:46:04.206Z,99.99
2019-03-03T11:47:03.695Z,99.99
2019-03-03T11:48:06.909Z,99.99
2019-03-03T11:49:03.663Z,99.99
2019-03-03T11:50:03.660Z,99.99
2019-03-03T11:51:03.637Z,99.99
2019-03-03T11:52:03.633Z,99.99
2019-03-03T11:53:03.614Z,99.99
2019-03-03T11:54:03.603Z,99.99
2019-03-03T11:55:03.461Z,99.99
2019-03-03T11:56:03.591Z,99.99
2019-03-03T11:57:03.568Z,99.99
2019-03-03T11:58:03.552Z,99.99
2019-03-03T11:59:03.545Z,99.99
2019-03-03T12:00:03.531Z,99.99
2019-03-03T12:01:03.519Z,99.99
2019-03-03T12:02:03.506Z,99.99
2019-03-03T12:03:03.490Z,99.99
2019-03-03T12:04:03.480Z,99.99
2019-03-03T12:05:03.469Z,99.99
2019-03-03T12:06:03.455Z,99.99
2019-03-03T12:07:03.442Z,99.99
2019-03-03T12:08:03.186Z,99.99
2019-03-03T12:09:03.421Z,99.99
2019-03-03T12:10:03.408Z,99.99
2019-03-03T12:11:03.399Z,99.99
2019-03-03T12:12:03.388Z,99.99
2019-03-03T12:13:03.370Z,99.99
2019-03-03T12:14:03.361Z,99.99
2019-03-03T12:15:03.345Z,99.99
2019-03-03T12:16:03.334Z,99.99
2019-03-03T12:17:03.321Z,99.99
2019-03-03T12:18:03.318Z,99.99
2019-03-03T12:19:04.195Z,99.99
2019-03-03T12:20:03.284Z,99.99
2019-03-03T12:21:03.270Z,99.99
2019-03-03T12:22:03.262Z,99.99
2019-03-03T12:23:03.252Z,99.99
2019-03-03T12:24:03.234Z,99.99
2019-03-03T12:25:03.219Z,99.99
2019-03-03T12:26:03.211Z,99.99
2019-03-03T12:27:03.198Z,99.99
2019-03-03T12:28:03.192Z,99.99
2019-03-03T12:29:03.171Z,99.99
2019-03-03T12:30:02.926Z,99.99
2019-03-03T12:31:03.146Z,99.99
2019-03-03T12:32:03.135Z,99.99
2019-03-03T12:33:03.123Z,99.99
2019-03-03T12:34:02.865Z,99.99
2019-03-03T12:35:03.103Z,99.99
2019-03-03T12:36:04.990Z,99.99
2019-03-03T12:37:03.078Z,99.99
2019-03-03T12:38:03.063Z,99.99
2019-03-03T12:39:03.050Z,99.99
2019-03-03T12:40:03.039Z,99.99
2019-03-03T12:41:03.025Z,99.99
2019-03-03T12:42:03.675Z,99.99
2019-03-03T12:43:03.000Z,99.99
2019-03-03T12:44:02.992Z,99.99
2019-03-03T12:45:02.977Z,99.99
2019-03-03T12:46:02.974Z,99.99
2019-03-03T12:47:02.960Z,99.99
2019-03-03T12:48:02.942Z,99.99
2019-03-03T12:49:02.928Z,99.99
2019-03-03T12:50:02.916Z,99.99
2019-03-03T12:51:02.902Z,99.99
2019-03-03T12:52:02.891Z,99.99
2019-03-03T12:53:02.876Z,99.99
2019-03-03T12:54:02.869Z,99.99